createdAt,value
2019-06-10T00:00:16.818Z,57.07
2019-06-10T00:01:08.643Z,57.17
2019-06-10T00:02:07.269Z,57.10
2019-06-10T00:03:07.257Z,57.40
2019-06-10T00:04:08.704Z,57.50
2019-06-10T00:05:07.713Z,57.81
2019-06-10T00:06:07.077Z,57.71
2019-06-10T00:07:07.375Z,58.01
2019-06-10T00:08:07.098Z,58.31
2019-06-10T00:09:08.072Z,58.22
2019-06-10T00:10:07.433Z,57.91
2019-06-10T00:11:07.847Z,57.91
2019-06-10T00:12:08.167Z,58.22
2019-06-10T00:13:07.328Z,58.52
2019-06-10T00:14:07.387Z,58.82
2019-06-10T00:15:07.771Z,58.72
2019-06-10T00:16:07.941Z,59.16
2019-06-10T00:17:07.959Z,58.85
2019-06-10T00:18:26.271Z,58.95
2019-06-10T00:19:09.394Z,59.05
2019-06-10T00:20:08.252Z,59.03
2019-06-10T00:21:07.955Z,59.16
2019-06-10T00:22:07.216Z,59.36
2019-06-10T00:23:07.177Z,59.03
2019-06-10T00:24:07.378Z,59.23
2019-06-10T00:25:07.309Z,59.43
2019-06-10T00:26:08.045Z,58.92
2019-06-10T00:27:07.222Z,59.23
2019-06-10T00:28:07.414Z,59.33
2019-06-10T00:29:07.822Z,59.53
2019-06-10T00:30:07.845Z,59.33
2019-06-10T00:31:16.534Z,59.56
2019-06-10T00:32:08.159Z,59.77
2019-06-10T00:33:07.709Z,59.86
2019-06-10T00:34:07.810Z,59.86
2019-06-10T00:35:07.720Z,59.86
2019-06-10T00:36:08.611Z,60.07
2019-06-10T00:37:09.182Z,60.27
2019-06-10T00:38:08.928Z,60.27
2019-06-10T00:39:07.290Z,59.97
2019-06-10T00:40:08.632Z,60.27
2019-06-10T00:41:07.626Z,60.68
2019-06-10T00:42:08.071Z,60.47
2019-06-10T00:43:07.304Z,60.07
2019-06-10T00:44:06.914Z,60.68
2019-06-10T00:45:09.477Z,60.68
2019-06-10T00:46:07.773Z,60.78
2019-06-10T00:47:07.945Z,60.68
2019-06-10T00:48:17.599Z,60.78
2019-06-10T00:49:08.134Z,60.98
2019-06-10T00:50:08.529Z,61.08
2019-06-10T00:51:07.318Z,61.08
2019-06-10T00:52:07.352Z,61.32
2019-06-10T00:53:07.482Z,61.62
2019-06-10T00:54:06.970Z,61.62
2019-06-10T00:55:07.690Z,61.52
2019-06-10T00:56:07.303Z,62.02
2019-06-10T00:57:07.296Z,62.23
2019-06-10T00:58:06.143Z,61.82
2019-06-10T00:59:06.137Z,62.02
2019-06-10T01:00:14.615Z,62.02
2019-06-10T01:01:07.973Z,62.23
2019-06-10T01:02:16.722Z,62.43
2019-06-10T01:03:06.164Z,62.33
2019-06-10T01:04:06.861Z,62.43
2019-06-10T01:05:07.167Z,62.23
2019-06-10T01:06:06.526Z,62.43
2019-06-10T01:07:06.523Z,62.63
2019-06-10T01:08:06.643Z,62.74
2019-06-10T01:09:06.713Z,62.74
2019-06-10T01:10:06.745Z,62.53
2019-06-10T01:11:16.554Z,62.74
2019-06-10T01:12:06.982Z,62.63
2019-06-10T01:13:07.025Z,62.43
2019-06-10T01:14:07.323Z,62.63
2019-06-10T01:15:07.336Z,62.94
2019-06-10T01:16:05.955Z,63.04
2019-06-10T01:17:05.961Z,63.45
2019-06-10T01:18:05.927Z,63.14
2019-06-10T01:19:05.922Z,62.94
2019-06-10T01:20:05.955Z,63.24
2019-06-10T01:21:05.921Z,63.55
2019-06-10T01:22:06.039Z,63.78
2019-06-10T01:23:06.972Z,63.88
2019-06-10T01:24:06.986Z,63.78
2019-06-10T01:25:05.849Z,64.09
2019-06-10T01:26:05.884Z,63.98
2019-06-10T01:27:05.824Z,63.98
2019-06-10T01:28:05.854Z,63.88
2019-06-10T01:29:05.820Z,63.78
2019-06-10T01:30:10.290Z,64.09
2019-06-10T01:31:10.884Z,64.39
2019-06-10T01:32:07.161Z,64.49
2019-06-10T01:33:17.570Z,64.59
2019-06-10T01:34:05.756Z,64.59
2019-06-10T01:35:06.530Z,64.18
2019-06-10T01:36:05.742Z,64.70
2019-06-10T01:37:06.760Z,64.90
2019-06-10T01:38:05.918Z,64.79
2019-06-10T01:39:06.725Z,64.79
2019-06-10T01:40:06.045Z,64.59
2019-06-10T01:41:06.060Z,64.79
2019-06-10T01:42:06.208Z,64.79
2019-06-10T01:43:06.337Z,64.79
2019-06-10T01:44:06.447Z,64.79
2019-06-10T01:45:06.533Z,65.30
2019-06-10T01:46:06.630Z,65.30
2019-06-10T01:47:06.691Z,65.20
2019-06-10T01:48:06.797Z,65.30
2019-06-10T01:49:06.671Z,65.51
2019-06-10T01:50:05.588Z,65.51
2019-06-10T01:51:05.600Z,65.61
2019-06-10T01:52:05.570Z,65.61
2019-06-10T01:53:05.541Z,65.81
2019-06-10T01:54:05.531Z,65.84
2019-06-10T01:55:05.532Z,65.94
2019-06-10T01:56:05.519Z,66.12
2019-06-10T01:57:05.512Z,66.02
2019-06-10T01:58:05.494Z,66.32
2019-06-10T01:59:05.511Z,66.12
2019-06-10T02:00:10.439Z,65.51
2019-06-10T02:01:06.461Z,65.91
2019-06-10T02:02:05.463Z,65.91
2019-06-10T02:03:05.451Z,65.81
2019-06-10T02:04:16.677Z,66.12
2019-06-10T02:05:05.414Z,66.02
2019-06-10T02:06:05.402Z,66.02
2019-06-10T02:07:05.430Z,66.22
2019-06-10T02:08:05.397Z,66.22
2019-06-10T02:09:05.372Z,66.32
2019-06-10T02:10:05.365Z,66.22
2019-06-10T02:11:05.351Z,66.02
2019-06-10T02:12:05.348Z,66.32
2019-06-10T02:13:05.332Z,66.83
2019-06-10T02:14:05.339Z,66.52
2019-06-10T02:15:05.303Z,66.42
2019-06-10T02:16:05.304Z,66.83
2019-06-10T02:17:05.290Z,67.03
2019-06-10T02:18:05.310Z,66.93
2019-06-10T02:19:05.269Z,66.83
2019-06-10T02:20:05.270Z,67.13
2019-06-10T02:21:05.250Z,67.24
2019-06-10T02:22:05.250Z,67.33
2019-06-10T02:23:05.230Z,67.24
2019-06-10T02:24:05.232Z,67.33
2019-06-10T02:25:05.210Z,67.54
2019-06-10T02:26:05.209Z,67.54
2019-06-10T02:27:05.203Z,67.74
2019-06-10T02:28:05.166Z,67.84
2019-06-10T02:29:05.190Z,67.84
2019-06-10T02:30:14.851Z,67.94
2019-06-10T02:31:06.166Z,67.91
2019-06-10T02:32:05.963Z,68.12
2019-06-10T02:33:05.109Z,68.12
2019-06-10T02:34:05.148Z,68.01
2019-06-10T02:35:26.181Z,67.61
2019-06-10T02:36:06.078Z,68.01
2019-06-10T02:37:05.197Z,67.61
2019-06-10T02:38:05.061Z,67.50
2019-06-10T02:39:05.077Z,67.71
2019-06-10T02:40:05.052Z,67.71
2019-06-10T02:41:05.113Z,67.41
2019-06-10T02:42:05.067Z,67.50
2019-06-10T02:43:05.021Z,67.61
2019-06-10T02:44:05.038Z,67.68
2019-06-10T02:45:05.010Z,67.78
2019-06-10T02:46:05.212Z,67.78
2019-06-10T02:47:04.964Z,67.88
2019-06-10T02:48:04.969Z,67.68
2019-06-10T02:49:20.932Z,67.38
2019-06-10T02:50:08.697Z,67.47
2019-06-10T02:51:04.966Z,67.47
2019-06-10T02:52:04.924Z,67.68
2019-06-10T02:53:04.907Z,67.88
2019-06-10T02:54:05.154Z,68.08
2019-06-10T02:55:04.991Z,67.78
2019-06-10T02:56:04.888Z,67.47
2019-06-10T02:57:04.901Z,67.47
2019-06-10T02:58:04.853Z,67.38
2019-06-10T02:59:04.859Z,67.34
2019-06-10T03:00:15.644Z,67.58
2019-06-10T03:01:05.850Z,67.58
2019-06-10T03:02:04.824Z,67.58
2019-06-10T03:03:04.819Z,67.88
2019-06-10T03:04:04.915Z,67.78
2019-06-10T03:05:05.004Z,67.88
2019-06-10T03:06:17.866Z,67.68
2019-06-10T03:07:04.775Z,67.58
2019-06-10T03:08:04.753Z,67.78
2019-06-10T03:09:04.728Z,67.85
2019-06-10T03:10:05.015Z,67.75
2019-06-10T03:11:04.708Z,67.65
2019-06-10T03:12:05.085Z,68.08
2019-06-10T03:13:04.687Z,68.19
2019-06-10T03:14:04.691Z,68.49
2019-06-10T03:15:04.678Z,68.39
2019-06-10T03:16:04.647Z,68.08
2019-06-10T03:17:04.693Z,68.05
2019-06-10T03:18:04.646Z,67.95
2019-06-10T03:19:04.618Z,68.15
2019-06-10T03:20:04.610Z,67.95
2019-06-10T03:21:04.596Z,68.35
2019-06-10T03:22:04.588Z,68.05
2019-06-10T03:23:04.628Z,67.95
2019-06-10T03:24:04.568Z,67.75
2019-06-10T03:25:04.576Z,67.95
2019-06-10T03:26:04.577Z,67.85
2019-06-10T03:27:04.576Z,67.85
2019-06-10T03:28:04.537Z,67.85
2019-06-10T03:29:04.549Z,67.85
2019-06-10T03:30:14.720Z,67.44
2019-06-10T03:31:06.412Z,67.82
2019-06-10T03:32:05.166Z,67.65
2019-06-10T03:33:05.146Z,67.85
2019-06-10T03:34:05.326Z,67.55
2019-06-10T03:35:05.403Z,67.75
2019-06-10T03:36:04.451Z,67.61
2019-06-10T03:37:16.100Z,67.61
2019-06-10T03:38:04.447Z,67.31
2019-06-10T03:39:04.446Z,67.00
2019-06-10T03:40:04.408Z,67.31
2019-06-10T03:41:04.398Z,67.61
2019-06-10T03:42:04.376Z,67.92
2019-06-10T03:43:04.377Z,67.72
2019-06-10T03:44:04.360Z,67.61
2019-06-10T03:45:04.376Z,67.61
2019-06-10T03:46:04.343Z,67.61
2019-06-10T03:47:04.339Z,67.31
2019-06-10T03:48:04.326Z,67.41
2019-06-10T03:49:04.316Z,67.41
2019-06-10T03:50:04.332Z,67.41
2019-06-10T03:51:04.311Z,67.38
2019-06-10T03:52:04.275Z,67.18
2019-06-10T03:53:04.503Z,66.97
2019-06-10T03:54:04.269Z,66.77
2019-06-10T03:55:04.244Z,66.88
2019-06-10T03:56:04.264Z,66.88
2019-06-10T03:57:04.238Z,66.64
2019-06-10T03:58:04.212Z,66.44
2019-06-10T03:59:04.225Z,66.64
2019-06-10T04:00:10.634Z,66.64
2019-06-10T04:01:05.210Z,66.84
2019-06-10T04:02:04.175Z,66.94
2019-06-10T04:03:04.150Z,66.64
2019-06-10T04:04:04.154Z,66.44
2019-06-10T04:05:04.138Z,66.33
2019-06-10T04:06:04.159Z,66.64
2019-06-10T04:07:04.169Z,66.44
2019-06-10T04:08:15.068Z,66.54
2019-06-10T04:09:04.099Z,66.44
2019-06-10T04:10:04.073Z,66.64
2019-06-10T04:11:04.067Z,66.54
2019-06-10T04:12:04.063Z,66.44
2019-06-10T04:13:04.044Z,66.24
2019-06-10T04:14:04.035Z,66.24
2019-06-10T04:15:04.036Z,66.13
2019-06-10T04:16:04.028Z,66.00
2019-06-10T04:17:04.051Z,66.44
2019-06-10T04:18:04.170Z,66.41
2019-06-10T04:19:04.005Z,66.41
2019-06-10T04:20:11.519Z,66.10
2019-06-10T04:21:04.983Z,66.20
2019-06-10T04:22:03.964Z,66.00
2019-06-10T04:23:03.986Z,66.10
2019-06-10T04:24:03.927Z,66.20
2019-06-10T04:25:03.955Z,66.20
2019-06-10T04:26:03.913Z,66.10
2019-06-10T04:27:03.912Z,66.30
2019-06-10T04:28:03.907Z,66.20
2019-06-10T04:29:03.924Z,66.00
2019-06-10T04:30:03.883Z,66.10
2019-06-10T04:31:03.864Z,66.00
2019-06-10T04:32:03.857Z,66.10
2019-06-10T04:33:03.876Z,66.61
2019-06-10T04:34:03.823Z,66.00
2019-06-10T04:35:03.823Z,65.70
2019-06-10T04:36:03.801Z,65.70
2019-06-10T04:37:03.804Z,66.50
2019-06-10T04:38:03.784Z,65.87
2019-06-10T04:39:14.736Z,65.67
2019-06-10T04:40:03.755Z,65.56
2019-06-10T04:41:03.771Z,65.87
2019-06-10T04:42:03.723Z,65.87
2019-06-10T04:43:03.723Z,65.36
2019-06-10T04:44:03.746Z,65.97
2019-06-10T04:45:03.713Z,65.77
2019-06-10T04:46:03.692Z,65.67
2019-06-10T04:47:03.693Z,65.33
2019-06-10T04:48:03.686Z,65.13
2019-06-10T04:49:03.726Z,64.79
2019-06-10T04:50:03.692Z,64.29
2019-06-10T04:51:03.645Z,64.39
2019-06-10T04:52:03.654Z,64.19
2019-06-10T04:53:03.633Z,64.59
2019-06-10T04:54:03.635Z,64.70
2019-06-10T04:55:03.615Z,64.29
2019-06-10T04:56:03.585Z,63.89
2019-06-10T04:57:03.604Z,63.68
2019-06-10T04:58:03.584Z,64.09
2019-06-10T04:59:03.569Z,63.89
2019-06-10T05:00:10.982Z,63.78
2019-06-10T05:01:05.065Z,63.65
2019-06-10T05:02:05.596Z,63.76
2019-06-10T05:03:03.544Z,63.15
2019-06-10T05:04:03.522Z,63.15
2019-06-10T05:05:03.502Z,63.25
2019-06-10T05:06:03.619Z,63.35
2019-06-10T05:07:03.511Z,62.71
2019-06-10T05:08:03.472Z,62.51
2019-06-10T05:09:04.187Z,61.71
2019-06-10T05:10:15.393Z,61.80
2019-06-10T05:11:03.892Z,61.91
2019-06-10T05:12:03.436Z,61.17
2019-06-10T05:13:03.411Z,61.47
2019-06-10T05:14:03.395Z,61.77
2019-06-10T05:15:03.679Z,61.07
2019-06-10T05:16:03.880Z,60.87
2019-06-10T05:17:03.376Z,60.57
2019-06-10T05:18:03.445Z,60.57
2019-06-10T05:19:03.907Z,60.26
2019-06-10T05:20:03.331Z,60.46
2019-06-10T05:21:03.327Z,60.94
2019-06-10T05:22:03.386Z,61.04
2019-06-10T05:23:03.312Z,61.27
2019-06-10T05:24:03.295Z,60.87
2019-06-10T05:25:03.285Z,60.66
2019-06-10T05:26:03.263Z,60.44
2019-06-10T05:27:03.302Z,60.53
2019-06-10T05:28:03.264Z,60.53
2019-06-10T05:29:03.351Z,60.31
2019-06-10T05:30:03.237Z,60.00
2019-06-10T05:31:03.217Z,58.69
2019-06-10T05:32:03.213Z,58.89
2019-06-10T05:33:03.214Z,58.89
2019-06-10T05:34:03.181Z,58.89
2019-06-10T05:35:03.653Z,58.69
2019-06-10T05:36:03.175Z,58.89
2019-06-10T05:37:03.157Z,58.80
2019-06-10T05:38:03.214Z,59.17
2019-06-10T05:39:03.142Z,58.39
2019-06-10T05:40:03.141Z,58.26
2019-06-10T05:41:13.633Z,57.25
2019-06-10T05:42:03.377Z,56.75
2019-06-10T05:43:03.102Z,56.95
2019-06-10T05:44:03.083Z,57.96
2019-06-10T05:45:03.255Z,57.35
2019-06-10T05:46:03.279Z,56.65
2019-06-10T05:47:03.712Z,57.45
2019-06-10T05:48:03.034Z,56.95
2019-06-10T05:49:03.197Z,56.65
2019-06-10T05:50:03.373Z,56.85
2019-06-10T05:51:06.488Z,56.88
2019-06-10T05:52:03.014Z,57.08
2019-06-10T05:53:02.983Z,57.38
2019-06-10T05:54:03.019Z,56.85
2019-06-10T05:55:03.054Z,56.45
2019-06-10T05:56:02.983Z,56.24
2019-06-10T05:57:02.962Z,56.35
2019-06-10T05:58:02.987Z,55.94
2019-06-10T05:59:04.376Z,55.94
2019-06-10T06:00:10.878Z,56.35
2019-06-10T06:01:03.921Z,56.75
2019-06-10T06:02:02.901Z,56.68
2019-06-10T06:03:02.893Z,56.88
2019-06-10T06:04:03.338Z,56.88
2019-06-10T06:05:02.910Z,57.18
2019-06-10T06:06:03.289Z,56.77
2019-06-10T06:07:02.843Z,57.86
2019-06-10T06:08:08.367Z,57.05
2019-06-10T06:09:03.823Z,56.24
2019-06-10T06:10:02.813Z,56.65
2019-06-10T06:11:03.353Z,56.15
2019-06-10T06:12:15.400Z,56.04
2019-06-10T06:13:03.132Z,55.41
2019-06-10T06:14:02.901Z,56.12
2019-06-10T06:15:02.745Z,56.02
2019-06-10T06:16:03.495Z,55.21
2019-06-10T06:17:02.748Z,54.88
2019-06-10T06:18:09.392Z,54.88
2019-06-10T06:19:03.716Z,54.58
2019-06-10T06:20:02.880Z,54.99
2019-06-10T06:21:19.473Z,54.05
2019-06-10T06:22:03.727Z,54.38
2019-06-10T06:23:02.861Z,54.58
2019-06-10T06:24:03.933Z,54.75
2019-06-10T06:25:03.799Z,55.06
2019-06-10T06:26:03.949Z,54.75
2019-06-10T06:27:02.630Z,54.66
2019-06-10T06:28:03.009Z,54.18
2019-06-10T06:29:02.603Z,52.57
2019-06-10T06:30:10.617Z,53.09
2019-06-10T06:31:03.648Z,53.52
2019-06-10T06:32:02.741Z,53.20
2019-06-10T06:33:03.096Z,53.40
2019-06-10T06:34:03.148Z,52.89
2019-06-10T06:35:02.537Z,53.38
2019-06-10T06:36:03.472Z,53.27
2019-06-10T06:37:02.513Z,53.78
2019-06-10T06:38:02.693Z,53.47
2019-06-10T06:39:02.507Z,51.66
2019-06-10T06:40:02.916Z,52.77
2019-06-10T06:41:03.260Z,52.04
2019-06-10T06:42:02.471Z,51.86
2019-06-10T06:43:12.529Z,51.79
2019-06-10T06:44:02.490Z,52.09
2019-06-10T06:45:03.076Z,53.20
2019-06-10T06:46:02.762Z,53.70
2019-06-10T06:47:02.800Z,53.60
2019-06-10T06:48:02.986Z,52.87
2019-06-10T06:49:02.388Z,53.07
2019-06-10T06:50:02.808Z,52.24
2019-06-10T06:51:07.571Z,53.32
2019-06-10T06:52:03.396Z,52.72
2019-06-10T06:53:19.681Z,51.91
2019-06-10T06:54:03.431Z,50.78
2019-06-10T06:55:02.611Z,50.89
2019-06-10T06:56:03.632Z,51.59
2019-06-10T06:57:03.517Z,51.41
2019-06-10T06:58:03.357Z,51.41
2019-06-10T06:59:02.607Z,51.11
2019-06-10T07:00:29.848Z,51.81
2019-06-10T07:01:10.243Z,51.91
2019-06-10T07:02:03.257Z,51.09
2019-06-10T07:03:03.117Z,50.89
2019-06-10T07:04:02.767Z,50.18
2019-06-10T07:05:03.142Z,50.28
2019-06-10T07:06:02.798Z,49.85
2019-06-10T07:07:02.671Z,49.85
2019-06-10T07:08:02.469Z,50.15
2019-06-10T07:09:07.695Z,48.95
2019-06-10T07:10:03.476Z,48.95
2019-06-10T07:11:02.828Z,49.15
2019-06-10T07:12:02.582Z,49.07
2019-06-10T07:13:02.830Z,49.77
2019-06-10T07:14:13.582Z,49.77
2019-06-10T07:15:04.173Z,49.68
2019-06-10T07:16:02.977Z,49.50
2019-06-10T07:17:03.935Z,50.20
2019-06-10T07:18:02.434Z,49.80
2019-06-10T07:19:02.606Z,49.40
2019-06-10T07:20:03.285Z,49.02
2019-06-10T07:21:02.708Z,49.22
2019-06-10T07:22:11.530Z,49.22
2019-06-10T07:23:03.034Z,50.23
2019-06-10T07:24:03.251Z,49.82
2019-06-10T07:25:06.365Z,50.53
2019-06-10T07:26:02.438Z,50.83
2019-06-10T07:27:02.737Z,50.02
2019-06-10T07:28:02.110Z,51.14
2019-06-10T07:29:02.916Z,50.13
2019-06-10T07:30:11.297Z,50.85
2019-06-10T07:31:03.451Z,50.45
2019-06-10T07:32:03.363Z,49.95
2019-06-10T07:33:02.970Z,50.33
2019-06-10T07:34:02.583Z,51.23
2019-06-10T07:35:02.909Z,49.73
2019-06-10T07:36:03.308Z,50.02
2019-06-10T07:37:02.595Z,50.23
2019-06-10T07:38:03.117Z,50.20
2019-06-10T07:39:03.483Z,50.81
2019-06-10T07:40:03.069Z,50.38
2019-06-10T07:41:02.620Z,50.28
2019-06-10T07:42:03.128Z,49.37
2019-06-10T07:43:02.330Z,48.67
2019-06-10T07:44:03.097Z,49.18
2019-06-10T07:45:13.056Z,48.19
2019-06-10T07:46:03.351Z,48.37
2019-06-10T07:47:02.595Z,48.77
2019-06-10T07:48:02.859Z,49.77
2019-06-10T07:49:03.315Z,47.85
2019-06-10T07:50:03.016Z,48.05
2019-06-10T07:51:02.807Z,48.55
2019-06-10T07:52:14.876Z,47.92
2019-06-10T07:53:02.741Z,47.92
2019-06-10T07:54:03.217Z,46.51
2019-06-10T07:55:02.523Z,46.94
2019-06-10T07:56:03.188Z,47.24
2019-06-10T07:57:02.413Z,47.82
2019-06-10T07:58:02.504Z,47.22
2019-06-10T07:59:03.881Z,47.32
2019-06-10T08:00:03.088Z,47.60
2019-06-10T08:01:02.686Z,47.80
2019-06-10T08:02:03.044Z,47.88
2019-06-10T08:03:02.470Z,48.18
2019-06-10T08:04:03.097Z,47.96
2019-06-10T08:05:03.680Z,47.77
2019-06-10T08:06:03.365Z,47.58
2019-06-10T08:07:03.319Z,47.85
2019-06-10T08:08:02.811Z,46.57
2019-06-10T08:09:02.267Z,47.47
2019-06-10T08:10:02.867Z,47.77
2019-06-10T08:11:03.353Z,47.35
2019-06-10T08:12:05.729Z,47.58
2019-06-10T08:13:02.969Z,47.70
2019-06-10T08:14:04.544Z,47.60
2019-06-10T08:15:02.683Z,46.80
2019-06-10T08:16:13.156Z,47.07
2019-06-10T08:17:03.147Z,46.77
2019-06-10T08:18:04.275Z,46.67
2019-06-10T08:19:30.126Z,46.77
2019-06-10T08:20:02.666Z,46.49
2019-06-10T08:21:03.215Z,47.09
2019-06-10T08:22:02.848Z,48.02
2019-06-10T08:23:02.216Z,47.19
2019-06-10T08:24:03.523Z,47.50
2019-06-10T08:25:04.839Z,47.80
2019-06-10T08:26:03.409Z,47.17
2019-06-10T08:27:02.686Z,47.47
2019-06-10T08:28:03.040Z,46.87
2019-06-10T08:29:04.159Z,46.87
2019-06-10T08:30:15.334Z,46.97
2019-06-10T08:31:03.678Z,46.57
2019-06-10T08:32:03.349Z,47.70
2019-06-10T08:33:03.379Z,47.09
2019-06-10T08:34:03.034Z,46.59
2019-06-10T08:35:02.783Z,46.89
2019-06-10T08:36:03.822Z,46.27
2019-06-10T08:37:04.432Z,44.56
2019-06-10T08:38:02.449Z,44.56
2019-06-10T08:39:03.249Z,45.14
2019-06-10T08:40:03.613Z,45.34
2019-06-10T08:41:03.226Z,46.04
2019-06-10T08:42:03.136Z,44.76
2019-06-10T08:43:04.044Z,44.67
2019-06-10T08:44:02.260Z,45.37
2019-06-10T08:45:03.491Z,45.87
2019-06-10T08:46:02.557Z,44.76
2019-06-10T08:47:12.460Z,45.37
2019-06-10T08:48:02.753Z,44.67
2019-06-10T08:49:03.196Z,44.26
2019-06-10T08:50:02.660Z,43.64
2019-06-10T08:51:03.273Z,42.44
2019-06-10T08:52:02.763Z,42.94
2019-06-10T08:53:13.977Z,43.64
2019-06-10T08:54:02.476Z,43.56
2019-06-10T08:55:03.350Z,44.48
2019-06-10T08:56:02.860Z,45.01
2019-06-10T08:57:03.705Z,45.21
2019-06-10T08:58:02.769Z,45.51
2019-06-10T08:59:03.097Z,46.31
2019-06-10T09:00:10.668Z,46.31
2019-06-10T09:01:02.391Z,45.39
2019-06-10T09:02:02.962Z,44.91
2019-06-10T09:03:03.831Z,45.03
2019-06-10T09:04:03.080Z,45.41
2019-06-10T09:05:03.455Z,44.81
2019-06-10T09:06:02.705Z,45.01
2019-06-10T09:07:03.890Z,44.68
2019-06-10T09:08:02.827Z,45.37
2019-06-10T09:09:03.131Z,45.06
2019-06-10T09:10:02.962Z,44.06
2019-06-10T09:11:02.413Z,44.14
2019-06-10T09:12:03.447Z,44.04
2019-06-10T09:13:02.786Z,44.64
2019-06-10T09:14:02.587Z,45.45
2019-06-10T09:15:03.150Z,43.82
2019-06-10T09:16:12.872Z,43.32
2019-06-10T09:17:03.401Z,42.61
2019-06-10T09:18:13.955Z,42.41
2019-06-10T09:19:02.241Z,42.52
2019-06-10T09:20:02.937Z,42.03
2019-06-10T09:21:02.321Z,42.13
2019-06-10T09:22:03.231Z,41.53
2019-06-10T09:23:18.413Z,42.63
2019-06-10T09:24:03.953Z,42.61
2019-06-10T09:25:02.913Z,42.02
2019-06-10T09:26:03.278Z,42.11
2019-06-10T09:27:02.968Z,42.91
2019-06-10T09:28:02.359Z,42.82
2019-06-10T09:29:02.941Z,43.42
2019-06-10T09:30:02.973Z,43.80
2019-06-10T09:31:03.701Z,43.19
2019-06-10T09:32:02.183Z,44.32
2019-06-10T09:33:03.881Z,42.99
2019-06-10T09:34:00.649Z,43.19
2019-06-10T09:35:03.219Z,43.10
2019-06-10T09:36:03.001Z,41.88
2019-06-10T09:37:03.072Z,41.69
2019-06-10T09:38:00.591Z,41.79
2019-06-10T09:39:03.755Z,40.59
2019-06-10T09:40:03.215Z,40.99
2019-06-10T09:41:04.917Z,41.09
2019-06-10T09:42:06.107Z,40.87
2019-06-10T09:43:02.515Z,40.87
2019-06-10T09:44:03.030Z,41.77
2019-06-10T09:45:02.631Z,41.57
2019-06-10T09:46:03.238Z,39.87
2019-06-10T09:47:03.270Z,41.09
2019-06-10T09:48:03.876Z,40.47
2019-06-10T09:49:12.729Z,40.19
2019-06-10T09:50:03.053Z,40.71
2019-06-10T09:51:02.527Z,42.21
2019-06-10T09:52:03.114Z,41.41
2019-06-10T09:53:00.448Z,41.29
2019-06-10T09:54:03.612Z,41.89
2019-06-10T09:55:02.773Z,41.09
2019-06-10T09:56:00.402Z,41.77
2019-06-10T09:57:02.427Z,40.37
2019-06-10T09:58:03.101Z,40.27
2019-06-10T09:59:00.377Z,40.39
2019-06-10T10:00:03.077Z,40.37
2019-06-10T10:01:02.960Z,40.77
2019-06-10T10:02:03.677Z,40.37
2019-06-10T10:03:03.368Z,40.17
2019-06-10T10:04:00.750Z,39.97
2019-06-10T10:05:00.331Z,40.37
2019-06-10T10:06:11.435Z,39.55
2019-06-10T10:07:03.065Z,41.25
2019-06-10T10:08:00.286Z,38.75
2019-06-10T10:09:00.281Z,38.63
2019-06-10T10:10:00.253Z,38.85
2019-06-10T10:11:00.253Z,39.65
2019-06-10T10:12:02.882Z,38.05
2019-06-10T10:13:02.565Z,38.45
2019-06-10T10:14:00.210Z,39.15
2019-06-10T10:15:16.331Z,39.03
2019-06-10T10:16:02.633Z,38.93
2019-06-10T10:17:01.317Z,38.31
2019-06-10T10:18:02.510Z,40.11
2019-06-10T10:19:01.558Z,37.93
2019-06-10T10:20:12.214Z,38.15
2019-06-10T10:21:03.121Z,38.55
2019-06-10T10:22:00.139Z,38.15
2019-06-10T10:23:02.526Z,38.95
2019-06-10T10:24:06.885Z,39.13
2019-06-10T10:25:03.018Z,38.42
2019-06-10T10:26:00.114Z,38.31
2019-06-10T10:27:02.619Z,37.13
2019-06-10T10:28:03.175Z,37.65
2019-06-10T10:29:02.636Z,38.63
2019-06-10T10:30:00.070Z,39.13
2019-06-10T10:31:00.048Z,39.41
2019-06-10T10:32:02.451Z,39.01
2019-06-10T10:33:02.548Z,37.41
2019-06-10T10:34:02.202Z,38.29
2019-06-10T10:35:02.826Z,36.91
2019-06-10T10:36:02.154Z,37.41
2019-06-10T10:36:59.980Z,38.20
2019-06-10T10:37:59.965Z,36.60
2019-06-10T10:39:02.282Z,38.20
2019-06-10T10:39:59.956Z,36.91
2019-06-10T10:40:59.979Z,36.91
2019-06-10T10:41:59.932Z,37.03
2019-06-10T10:43:19.810Z,36.93
2019-06-10T10:44:03.112Z,36.43
2019-06-10T10:45:02.585Z,37.13
2019-06-10T10:46:01.149Z,37.33
2019-06-10T10:47:03.496Z,37.73
2019-06-10T10:48:02.371Z,36.43
2019-06-10T10:49:02.506Z,37.33
2019-06-10T10:50:02.563Z,37.01
2019-06-10T10:51:12.940Z,38.61
2019-06-10T10:52:02.510Z,38.11
2019-06-10T10:52:59.821Z,36.11
2019-06-10T10:54:21.197Z,36.81
2019-06-10T10:55:06.441Z,36.11
2019-06-10T10:56:02.232Z,35.31
2019-06-10T10:56:59.808Z,36.01
2019-06-10T10:57:59.769Z,35.81
2019-06-10T10:59:02.015Z,36.33
2019-06-10T10:59:59.812Z,37.43
2019-06-10T11:00:59.748Z,38.11
2019-06-10T11:02:02.201Z,37.31
2019-06-10T11:02:59.738Z,38.20
2019-06-10T11:04:02.732Z,36.69
2019-06-10T11:04:59.682Z,36.18
2019-06-10T11:06:01.091Z,35.38
2019-06-10T11:07:01.137Z,35.58
2019-06-10T11:07:59.662Z,36.10
2019-06-10T11:08:59.661Z,36.60
2019-06-10T11:09:59.630Z,35.78
2019-06-10T11:11:03.656Z,37.48
2019-06-10T11:11:59.613Z,36.38
2019-06-10T11:12:59.598Z,35.38
2019-06-10T11:13:59.592Z,35.68
2019-06-10T11:15:02.128Z,35.58
2019-06-10T11:16:03.324Z,35.39
2019-06-10T11:16:59.548Z,35.61
2019-06-10T11:17:59.564Z,35.93
2019-06-10T11:18:59.574Z,37.31
2019-06-10T11:19:59.511Z,35.91
2019-06-10T11:21:04.281Z,36.61
2019-06-10T11:23:12.521Z,35.99
2019-06-10T11:24:15.860Z,35.98
2019-06-10T11:25:13.384Z,36.47
2019-06-10T11:26:13.182Z,35.58
2019-06-10T11:27:12.829Z,35.98
2019-06-10T11:28:12.340Z,34.68
2019-06-10T11:29:12.334Z,34.76
2019-06-10T11:30:12.452Z,37.56
2019-06-10T11:31:13.724Z,34.76
2019-06-10T11:32:12.297Z,35.66
2019-06-10T11:33:12.280Z,35.74
2019-06-10T11:34:12.281Z,34.84
2019-06-10T11:35:12.338Z,35.35
2019-06-10T11:36:13.539Z,34.84
2019-06-10T11:37:12.738Z,34.63
2019-06-10T11:38:12.840Z,34.64
2019-06-10T11:39:13.387Z,34.55
2019-06-10T11:40:13.545Z,35.33
2019-06-10T11:41:13.586Z,34.83
2019-06-10T11:42:13.247Z,34.43
2019-06-10T11:43:13.098Z,34.23
2019-06-10T11:44:12.192Z,34.14
2019-06-10T11:45:12.160Z,34.25
2019-06-10T11:46:13.766Z,33.73
2019-06-10T11:47:13.136Z,33.83
2019-06-10T11:48:13.006Z,34.55
2019-06-10T11:49:12.674Z,34.14
2019-06-10T11:50:12.207Z,33.54
2019-06-10T11:51:13.083Z,34.14
2019-06-10T11:52:12.610Z,35.53
2019-06-10T11:53:19.066Z,34.25
2019-06-10T11:54:12.786Z,34.56
2019-06-10T11:55:18.762Z,35.08
2019-06-10T11:56:13.338Z,35.76
2019-06-10T11:57:12.563Z,34.75
2019-06-10T11:58:12.039Z,35.83
2019-06-10T11:59:13.449Z,34.91
2019-06-10T12:00:16.623Z,33.90
2019-06-10T12:01:13.438Z,32.70
2019-06-10T12:02:13.251Z,34.71
2019-06-10T12:03:13.166Z,32.60
2019-06-10T12:04:12.840Z,34.39
2019-06-10T12:05:12.993Z,34.20
2019-06-10T12:06:13.679Z,33.70
2019-06-10T12:07:12.876Z,35.08
2019-06-10T12:08:13.071Z,33.48
2019-06-10T12:09:13.728Z,33.80
2019-06-10T12:10:12.894Z,34.83
2019-06-10T12:11:12.605Z,36.15
2019-06-10T12:12:12.931Z,37.86
2019-06-10T12:13:13.369Z,38.66
2019-06-10T12:14:12.857Z,40.14
2019-06-10T12:15:12.198Z,42.61
2019-06-10T12:17:05.729Z,42.24
2019-06-10T12:17:24.599Z,43.43
2019-06-10T12:18:13.277Z,44.05
2019-06-10T12:19:12.692Z,44.15
2019-06-10T12:20:13.351Z,44.65
2019-06-10T12:21:13.203Z,43.98
2019-06-10T12:22:13.393Z,44.89
2019-06-10T12:23:12.743Z,45.29
2019-06-10T12:24:23.127Z,45.67
2019-06-10T12:25:31.277Z,46.23
2019-06-10T12:26:12.750Z,45.03
2019-06-10T12:27:13.090Z,46.53
2019-06-10T12:28:12.888Z,43.45
2019-06-10T12:29:12.410Z,45.15
2019-06-10T12:30:13.309Z,44.13
2019-06-10T12:31:13.566Z,43.01
2019-06-10T12:32:13.491Z,41.71
2019-06-10T12:33:19.891Z,41.83
2019-06-10T12:34:12.713Z,43.03
2019-06-10T12:35:13.743Z,40.34
2019-06-10T12:36:12.794Z,41.96
2019-06-10T12:37:15.759Z,41.66
2019-06-10T12:38:13.802Z,41.53
2019-06-10T12:39:15.287Z,41.22
2019-06-10T12:40:12.881Z,40.44
2019-06-10T12:41:13.917Z,41.55
2019-06-10T12:42:14.108Z,40.95
2019-06-10T12:43:12.609Z,40.64
2019-06-10T12:44:12.340Z,40.32
2019-06-10T12:45:12.752Z,39.80
2019-06-10T12:46:12.771Z,40.70
2019-06-10T12:47:11.523Z,40.50
2019-06-10T12:48:13.363Z,40.81
2019-06-10T12:49:13.117Z,39.54
2019-06-10T12:50:12.055Z,40.23
2019-06-10T12:51:13.506Z,41.05
2019-06-10T12:52:12.501Z,40.78
2019-06-10T12:53:12.560Z,40.88